Time;durP1;ratioP1;P1;durP2;ratioP2;P2;SDS_P1;SDS_P2;PMS_P1;PMS_P2;Temp;Humidity;BMP_temperature;BMP_pressure;BME280_temperature;BME280_humidity;BME280_pressure;Samples;Min_cycle;Max_cycle;Signal;HPM_P1;HPM_P2
2023/04/09 00:00:21;;;;;;;3.35;2.47;;;;;;;8.90;49.20;102838.06;5059131;28;20027;-69
2023/04/09 00:02:47;;;;;;;5.30;2.00;;;;;;;8.85;49.54;102848.38;5060830;28;20023;-69
2023/04/09 00:05:13;;;;;;;3.15;2.13;;;;;;;8.87;49.40;102843.72;5062740;28;20052;-69
2023/04/09 00:07:38;;;;;;;5.13;2.42;;;;;;;8.74;49.90;102821.66;5056940;28;20053;-69
2023/04/09 00:10:04;;;;;;;3.35;2.00;;;;;;;8.68;50.18;102811.47;5057655;28;20035;-69
2023/04/09 00:12:30;;;;;;;2.88;1.83;;;;;;;8.78;49.93;102836.50;5040976;28;20060;-69
2023/04/09 00:14:56;;;;;;;3.05;1.90;;;;;;;8.74;50.42;102834.19;5042394;28;20024;-69
2023/04/09 00:17:21;;;;;;;4.35;2.15;;;;;;;8.52;49.84;102813.81;5057638;28;20033;-69
2023/04/09 00:19:47;;;;;;;3.58;2.03;;;;;;;8.64;50.07;102836.84;5057945;28;20396;-69
2023/04/09 00:22:13;;;;;;;3.22;2.05;;;;;;;8.53;50.11;102824.41;5066231;28;20074;-69
2023/04/09 00:24:39;;;;;;;4.40;2.05;;;;;;;8.43;50.74;102834.25;5049391;28;20368;-69
2023/04/09 00:27:04;;;;;;;2.97;2.15;;;;;;;8.36;50.86;102835.75;5056076;28;20029;-69
2023/04/09 00:29:30;;;;;;;4.63;2.00;;;;;;;8.33;51.14;102833.34;5062967;28;20055;-69
2023/04/09 00:31:55;;;;;;;4.30;2.00;;;;;;;8.43;50.77;102832.41;5059876;28;20163;-69
2023/04/09 00:34:21;;;;;;;3.55;2.00;;;;;;;8.50;51.12;102831.88;5056852;28;20033;-69
2023/04/09 00:36:46;;;;;;;4.35;2.22;;;;;;;8.21;51.76;102835.25;5039164;28;20055;-69
2023/04/09 00:39:11;;;;;;;3.65;2.00;;;;;;;8.04;52.27;102828.66;5039124;28;20131;-69
2023/04/09 00:41:37;;;;;;;2.28;1.90;;;;;;;8.19;51.77;102821.97;5038621;28;20116;-70
2023/04/09 00:44:02;;;;;;;5.63;2.28;;;;;;;8.29;51.78;102823.84;5043889;28;20033;-69
2023/04/09 00:46:28;;;;;;;2.28;1.90;;;;;;;8.34;51.91;102827.81;5061011;28;20119;-69
2023/04/09 00:48:53;;;;;;;2.78;2.10;;;;;;;8.34;51.64;102824.28;5056149;28;20048;-69
2023/04/09 00:51:19;;;;;;;3.17;1.95;;;;;;;8.26;52.18;102816.94;5057436;28;20061;-69
2023/04/09 00:53:45;;;;;;;4.50;2.00;;;;;;;8.08;52.46;102822.06;5023774;28;20048;-69
2023/04/09 00:56:12;;;;;;;4.28;2.33;;;;;;;7.82;52.64;102792.16;5056802;28;20031;-69
2023/04/09 00:58:40;;;;;;;3.42;2.03;;;;;;;8.17;52.01;102817.72;5058199;28;20021;-69
2023/04/09 01:01:05;;;;;;;2.45;1.80;;;;;;;8.21;51.64;102814.66;5058625;28;20629;-69
2023/04/09 01:03:31;;;;;;;3.08;2.03;;;;;;;8.07;52.27;102790.00;5057572;28;20075;-69
2023/04/09 01:06:09;;;;;;;2.95;2.25;;;;;;;8.14;52.06;102809.94;5056066;28;20659;-69
2023/04/09 01:08:44;;;;;;;3.80;2.13;;;;;;;8.14;52.36;102813.47;5060795;28;20019;-68
2023/04/09 01:11:38;;;;;;;4.00;2.00;;;;;;;8.14;52.85;102818.84;5068421;28;20147;-69
2023/04/09 01:14:11;;;;;;;3.55;2.10;;;;;;;8.13;52.53;102818.97;5054519;28;20039;-69
2023/04/09 01:16:41;;;;;;;3.30;2.20;;;;;;;8.05;52.39;102810.78;5056904;28;20029;-69
2023/04/09 01:19:28;;;;;;;3.30;2.08;;;;;;;8.04;52.17;102825.13;5056643;28;20049;-69
2023/04/09 01:21:56;;;;;;;4.82;2.53;;;;;;;7.86;52.74;102807.00;5058823;28;20120;-69
2023/04/09 01:25:02;;;;;;;4.32;2.10;;;;;;;7.95;53.18;102819.59;5039607;28;20025;-69
2023/04/09 01:27:38;;;;;;;3.72;2.10;;;;;;;7.90;52.85;102819.13;5055669;28;20033;-69
2023/04/09 01:30:05;;;;;;;5.53;2.00;;;;;;;7.85;53.14;102816.03;5057045;28;20028;-69
2023/04/09 01:32:34;;;;;;;4.68;1.88;;;;;;;7.81;53.33;102822.59;5055253;28;20029;-69
2023/04/09 01:35:01;;;;;;;3.60;1.95;;;;;;;7.77;53.17;102826.53;5056245;28;20321;-69
2023/04/09 01:37:27;;;;;;;3.15;2.00;;;;;;;7.60;53.25;102803.00;5056946;28;20037;-69
2023/04/09 01:39:52;;;;;;;6.10;2.13;;;;;;;7.73;53.65;102822.41;5056378;28;20029;-69
2023/04/09 01:42:18;;;;;;;5.22;2.67;;;;;;;7.52;53.01;102801.84;5056654;28;20049;-69
2023/04/09 01:44:45;;;;;;;5.00;2.22;;;;;;;7.70;53.28;102828.03;5060612;28;20025;-69
2023/04/09 01:47:12;;;;;;;3.60;2.33;;;;;;;7.67;53.27;102828.31;5061673;28;20115;-69
2023/04/09 01:49:40;;;;;;;4.05;2.55;;;;;;;7.40;53.46;102791.31;5060801;28;20098;-69
2023/04/09 01:52:06;;;;;;;4.53;2.40;;;;;;;7.48;54.25;102827.19;5060081;28;20101;-69
2023/04/09 01:54:31;;;;;;;4.88;2.42;;;;;;;7.30;53.84;102810.81;5061654;28;20113;-69
2023/04/09 01:56:57;;;;;;;3.83;2.10;;;;;;;7.40;54.15;102834.16;5050781;28;20025;-69
2023/04/09 01:59:23;;;;;;;4.15;2.40;;;;;;;7.35;54.32;102820.28;5041501;28;20036;-69
2023/04/09 02:02:00;;;;;;;2.88;1.90;;;;;;;7.16;54.43;102799.56;5057793;28;20047;-69
2023/04/09 02:04:32;;;;;;;4.22;2.17;;;;;;;7.23;54.67;102830.22;5060516;28;20025;-69
2023/04/09 02:07:02;;;;;;;4.47;2.20;;;;;;;7.16;54.47;102821.00;5059787;28;20028;-69
2023/04/09 02:09:30;;;;;;;3.45;2.20;;;;;;;7.06;55.18;102821.75;5061327;28;20017;-69
2023/04/09 02:12:03;;;;;;;4.80;2.10;;;;;;;7.00;55.28;102818.72;5059876;28;20601;-69
2023/04/09 02:14:34;;;;;;;3.70;2.15;;;;;;;6.86;55.58;102809.16;5060603;28;20121;-69
2023/04/09 02:17:00;;;;;;;3.50;2.05;;;;;;;6.77;55.78;102820.59;5060404;28;20052;-69
2023/04/09 02:19:38;;;;;;;3.17;2.08;;;;;;;6.78;56.55;102816.94;5058265;28;20064;-69
2023/04/09 02:22:03;;;;;;;3.58;2.20;;;;;;;6.76;55.88;102816.25;5059634;28;20081;-69
2023/04/09 02:24:29;;;;;;;3.05;1.95;;;;;;;6.64;56.10;102804.69;5059240;28;20033;-69
2023/04/09 02:26:54;;;;;;;4.05;2.13;;;;;;;6.75;56.21;102822.53;5060648;28;20100;-69
2023/04/09 02:29:20;;;;;;;4.78;2.20;;;;;;;6.64;56.23;102811.88;5060728;28;20391;-69
2023/04/09 02:31:45;;;;;;;4.18;2.33;;;;;;;6.66;56.37;102821.50;5042395;28;20044;-69
2023/04/09 02:34:10;;;;;;;3.47;2.38;;;;;;;6.66;56.49;102816.13;5042324;28;20124;-69
2023/04/09 02:36:36;;;;;;;4.20;2.25;;;;;;;6.63;56.63;102823.56;5041670;28;20040;-69
2023/04/09 02:39:01;;;;;;;3.60;2.13;;;;;;;6.54;56.40;102820.63;5058247;28;20025;-69
2023/04/09 02:41:26;;;;;;;2.85;1.85;;;;;;;6.56;56.59;102816.03;5042233;28;20049;-68
2023/04/09 02:43:52;;;;;;;3.42;2.05;;;;;;;6.51;56.74;102815.53;5057566;28;20104;-69
2023/04/09 02:46:17;;;;;;;4.80;2.13;;;;;;;6.44;56.96;102814.31;5024762;28;20404;-69
2023/04/09 02:48:42;;;;;;;4.00;2.20;;;;;;;6.35;56.95;102807.03;5057455;28;20090;-69
2023/04/09 02:51:08;;;;;;;3.80;2.05;;;;;;;6.03;57.46;102756.16;5058020;28;20456;-69
2023/04/09 02:53:33;;;;;;;3.45;2.10;;;;;;;6.28;57.72;102798.66;5059122;28;20068;-69
2023/04/09 02:55:59;;;;;;;4.00;2.08;;;;;;;6.26;57.94;102805.97;5075734;28;20037;-69
2023/04/09 02:58:24;;;;;;;2.70;2.03;;;;;;;6.18;57.57;102802.19;5060138;28;20021;-69
2023/04/09 03:00:49;;;;;;;4.85;2.40;;;;;;;6.10;58.13;102806.31;5062583;28;20092;-69
2023/04/09 03:03:15;;;;;;;3.58;1.98;;;;;;;5.95;58.33;102801.31;5070682;28;20058;-69
2023/04/09 03:05:40;;;;;;;2.97;1.92;;;;;;;5.90;58.28;102801.66;5070601;28;20041;-69
2023/04/09 03:08:06;;;;;;;3.72;1.95;;;;;;;5.88;59.00;102803.56;5069900;28;20021;-69
2023/04/09 03:10:31;;;;;;;3.58;2.17;;;;;;;5.88;58.91;102806.25;5062052;28;20033;-69
2023/04/09 03:12:56;;;;;;;2.70;1.88;;;;;;;5.89;58.63;102802.59;5057233;28;20518;-69
2023/04/09 03:15:22;;;;;;;3.53;2.33;;;;;;;5.86;58.96;102806.38;5059010;28;20025;-69
2023/04/09 03:17:47;;;;;;;3.22;2.17;;;;;;;5.87;58.71;102797.38;5059112;28;20369;-68
2023/04/09 03:20:12;;;;;;;2.80;2.03;;;;;;;5.93;58.33;102793.44;5058073;28;20132;-69
2023/04/09 03:22:38;;;;;;;3.95;1.90;;;;;;;5.94;58.42;102784.44;5057504;28;20036;-70
2023/04/09 03:25:05;;;;;;;3.60;1.90;;;;;;;5.84;58.75;102772.72;5060198;28;20033;-70
2023/04/09 03:27:31;;;;;;;4.28;2.10;;;;;;;5.93;58.81;102782.75;5059882;28;20403;-69
2023/04/09 03:29:57;;;;;;;4.68;2.17;;;;;;;5.92;58.39;102785.47;5058979;28;20056;-69
2023/04/09 03:32:22;;;;;;;6.28;2.05;;;;;;;5.88;58.66;102784.88;5059328;28;20032;-69
2023/04/09 03:34:48;;;;;;;4.53;1.88;;;;;;;5.89;58.54;102784.78;5040871;28;20024;-69
2023/04/09 03:37:13;;;;;;;3.40;1.90;;;;;;;5.81;58.75;102778.31;5059100;28;20384;-69
2023/04/09 03:39:39;;;;;;;3.28;1.90;;;;;;;5.75;59.02;102779.63;5057762;28;20067;-69
2023/04/09 03:42:04;;;;;;;3.40;2.28;;;;;;;5.70;58.51;102764.94;5057788;28;20047;-69
2023/04/09 03:44:30;;;;;;;3.40;2.05;;;;;;;5.80;58.27;102785.47;5055979;28;20079;-69
2023/04/09 03:46:55;;;;;;;4.00;2.00;;;;;;;5.76;59.06;102792.03;5040396;28;20463;-69
2023/04/09 03:49:21;;;;;;;2.83;2.00;;;;;;;5.60;59.12;102770.16;5058876;28;20341;-69
2023/04/09 03:51:46;;;;;;;5.90;2.25;;;;;;;5.73;58.77;102796.75;5024836;28;20029;-69
2023/04/09 03:54:12;;;;;;;4.57;1.88;;;;;;;5.63;59.24;102783.28;5059020;28;20068;-69
2023/04/09 03:56:37;;;;;;;3.08;1.88;;;;;;;5.63;58.99;102781.44;5056012;28;20559;-69
2023/04/09 03:59:02;;;;;;;3.20;1.77;;;;;;;5.59;59.52;102785.31;5054203;28;20401;-69
2023/04/09 04:01:28;;;;;;;3.17;1.73;;;;;;;5.57;59.52;102786.41;5054191;28;20032;-69
2023/04/09 04:03:53;;;;;;;4.85;2.13;;;;;;;5.53;59.77;102784.91;5053434;28;20033;-69
2023/04/09 04:06:19;;;;;;;6.32;2.72;;;;;;;5.45;59.86;102787.34;5035044;28;20040;-69
2023/04/09 04:08:44;;;;;;;3.83;1.77;;;;;;;5.40;59.37;102790.38;5055061;28;20032;-69
2023/04/09 04:11:09;;;;;;;3.40;2.15;;;;;;;5.33;60.26;102781.97;5041173;28;20491;-69
2023/04/09 04:13:35;;;;;;;3.63;1.90;;;;;;;5.31;59.96;102783.06;5056480;28;20119;-69
2023/04/09 04:16:01;;;;;;;2.80;2.10;;;;;;;5.30;59.86;102784.88;5054602;28;20048;-69
2023/04/09 04:18:26;;;;;;;2.95;1.77;;;;;;;5.13;60.27;102770.13;5054066;28;20114;-69
2023/04/09 04:20:52;;;;;;;3.80;1.88;;;;;;;5.21;60.70;102782.03;5038724;28;20041;-69
2023/04/09 04:23:17;;;;;;;3.30;1.80;;;;;;;5.18;61.00;102786.63;5055446;28;20024;-69
2023/04/09 04:25:43;;;;;;;3.00;1.88;;;;;;;5.14;60.82;102777.16;5056627;28;20049;-69
2023/04/09 04:28:08;;;;;;;2.55;1.98;;;;;;;5.25;60.86;102788.84;5039762;28;20033;-69
2023/04/09 04:30:34;;;;;;;3.17;2.20;;;;;;;5.35;60.61;102792.53;5023483;28;20021;-69
2023/04/09 04:32:59;;;;;;;2.95;1.95;;;;;;;5.45;60.20;102795.34;5040281;28;20029;-69
2023/04/09 04:35:25;;;;;;;3.90;1.90;;;;;;;5.46;59.93;102800.56;5056021;28;20159;-69
2023/04/09 04:37:50;;;;;;;2.40;1.60;;;;;;;5.97;58.99;102794.88;5056298;28;20476;-69
2023/04/09 04:40:16;;;;;;;3.42;1.70;;;;;;;6.59;57.13;102786.34;5056989;28;20100;-69
2023/04/09 04:42:42;;;;;;;3.17;2.05;;;;;;;6.93;56.03;102766.69;5038352;28;20033;-69
2023/04/09 04:45:08;;;;;;;4.18;1.92;;;;;;;7.48;54.68;102788.81;5056785;28;20033;-69
2023/04/09 04:47:33;;;;;;;3.42;1.90;;;;;;;7.83;54.22;102795.69;5058423;28;20092;-69
2023/04/09 04:49:59;;;;;;;2.65;1.52;;;;;;;8.29;52.43;102786.31;5059762;28;20045;-69
2023/04/09 04:52:24;;;;;;;6.07;1.77;;;;;;;8.50;52.00;102797.84;5060707;28;20029;-69
2023/04/09 04:54:49;;;;;;;4.05;1.60;;;;;;;8.72;51.03;102769.94;5054431;28;20045;-69
2023/04/09 04:57:15;;;;;;;2.83;1.73;;;;;;;9.06;50.59;102791.88;5067114;28;20043;-69
2023/04/09 04:59:40;;;;;;;3.25;1.75;;;;;;;9.32;49.88;102794.84;5058936;28;20036;-68
2023/04/09 05:02:06;;;;;;;3.45;1.90;;;;;;;9.34;50.07;102798.25;5054606;28;20025;-69
2023/04/09 05:04:32;;;;;;;3.00;1.98;;;;;;;9.47;49.42;102800.66;5054807;28;20037;-69
2023/04/09 05:06:57;;;;;;;4.30;1.88;;;;;;;8.67;50.50;102773.00;5057057;28;20029;-69
2023/04/09 05:09:23;;;;;;;3.20;2.10;;;;;;;8.12;52.87;102788.63;5057142;28;20033;-69
2023/04/09 05:11:48;;;;;;;3.67;1.85;;;;;;;8.87;51.43;102790.03;5058135;28;20090;-70
2023/04/09 05:14:13;;;;;;;3.15;1.70;;;;;;;9.93;48.77;102804.34;5057121;28;20025;-69
2023/04/09 05:16:39;;;;;;;3.28;2.03;;;;;;;10.28;47.29;102797.47;5057743;28;20467;-69
2023/04/09 05:19:04;;;;;;;2.80;1.58;;;;;;;10.19;47.26;102799.19;5058458;28;20083;-69
2023/04/09 05:21:30;;;;;;;2.58;1.58;;;;;;;10.63;46.70;102802.13;5060700;28;20056;-69
2023/04/09 05:23:56;;;;;;;3.30;1.70;;;;;;;10.95;45.57;102781.94;5061244;28;20032;-69
2023/04/09 05:26:21;;;;;;;3.03;1.73;;;;;;;11.16;45.23;102804.03;5061101;28;20088;-69
2023/04/09 05:28:47;;;;;;;3.35;1.83;;;;;;;11.69;44.16;102772.63;5059946;28;20108;-69
2023/04/09 05:31:14;;;;;;;1.90;1.55;;;;;;;12.14;43.54;102801.25;5042841;28;20025;-69
2023/04/09 05:33:40;;;;;;;3.08;1.73;;;;;;;11.93;43.57;102796.25;5060677;28;20078;-69
2023/04/09 05:36:06;;;;;;;2.47;1.58;;;;;;;11.92;43.67;102799.91;5059357;28;20033;-69
2023/04/09 05:38:31;;;;;;;2.75;1.48;;;;;;;11.07;44.96;102802.25;5059448;28;20048;-69
2023/04/09 05:40:57;;;;;;;3.58;1.85;;;;;;;10.11;47.54;102802.63;5064814;28;20040;-70
2023/04/09 05:43:22;;;;;;;3.35;1.80;;;;;;;9.61;49.08;102802.03;5074446;28;20033;-69
2023/04/09 05:45:48;;;;;;;3.17;1.65;;;;;;;8.80;50.59;102807.66;5044404;28;20036;-69
2023/04/09 05:48:13;;;;;;;3.20;1.73;;;;;;;8.77;51.82;102805.25;5060503;28;20044;-69
2023/04/09 05:50:39;;;;;;;3.33;1.85;;;;;;;8.61;51.94;102788.81;5059063;28;20079;-69
2023/04/09 05:53:04;;;;;;;2.28;1.52;;;;;;;8.56;52.61;102807.19;5059436;28;20029;-69
2023/04/09 05:55:31;;;;;;;2.83;1.90;;;;;;;8.74;52.18;102805.56;5059599;28;20087;-69
2023/04/09 05:57:57;;;;;;;1.92;1.17;;;;;;;8.59;53.18;102809.59;5061348;28;20033;-69
2023/04/09 06:00:22;;;;;;;2.85;1.58;;;;;;;8.81;52.22;102811.22;5042586;28;20032;-69
2023/04/09 06:02:48;;;;;;;2.53;1.60;;;;;;;8.92;51.96;102813.75;5060962;28;20021;-69
2023/04/09 06:05:14;;;;;;;2.50;1.48;;;;;;;9.13;51.66;102816.31;5059794;28;20348;-69
2023/04/09 06:07:39;;;;;;;2.42;1.38;;;;;;;9.15;51.20;102814.34;5059225;28;20469;-69
2023/04/09 06:10:05;;;;;;;2.25;1.25;;;;;;;9.49;50.19;102824.69;5043209;28;20056;-69
2023/04/09 06:12:33;;;;;;;1.73;1.30;;;;;;;9.37;50.58;102797.97;5060491;28;20032;-69
2023/04/09 06:14:59;;;;;;;2.45;1.30;;;;;;;9.73;50.32;102822.38;5059630;28;20087;-69
2023/04/09 06:17:24;;;;;;;3.25;1.38;;;;;;;10.15;49.11;102830.06;5060299;28;20439;-69
2023/04/09 06:19:50;;;;;;;2.03;1.23;;;;;;;10.23;48.36;102822.13;5058877;28;20135;-69
2023/04/09 06:22:15;;;;;;;2.15;1.15;;;;;;;10.12;48.36;102823.13;5059580;28;20028;-69
2023/04/09 06:24:40;;;;;;;2.15;1.25;;;;;;;9.94;47.34;102816.84;5058984;28;20024;-69
2023/04/09 06:27:06;;;;;;;2.17;1.30;;;;;;;10.14;47.56;102824.84;5059139;28;20029;-69
2023/04/09 06:29:32;;;;;;;2.03;1.25;;;;;;;10.34;47.42;102811.19;5041753;28;20036;-69
2023/04/09 06:31:57;;;;;;;3.38;1.40;;;;;;;10.58;46.79;102834.03;5058480;28;20082;-68
2023/04/09 06:34:22;;;;;;;2.15;1.08;;;;;;;10.82;46.45;102834.31;5059308;28;20078;-68
2023/04/09 06:36:48;;;;;;;1.92;1.20;;;;;;;10.82;46.21;102830.78;5048341;28;20344;-69
2023/04/09 06:39:13;;;;;;;2.83;1.20;;;;;;;11.25;45.94;102832.72;5058282;28;20421;-69
2023/04/09 06:41:38;;;;;;;2.35;1.35;;;;;;;11.22;45.42;102841.13;5055662;28;20086;-69
2023/04/09 06:44:04;;;;;;;3.25;1.08;;;;;;;11.07;45.47;102837.28;5057208;28;20147;-69
2023/04/09 06:46:29;;;;;;;2.13;1.20;;;;;;;11.33;45.17;102833.84;5058043;28;20033;-69
2023/04/09 06:48:55;;;;;;;4.45;1.27;;;;;;;11.78;44.72;102839.06;5057880;28;20032;-69
2023/04/09 06:51:20;;;;;;;2.15;1.20;;;;;;;11.55;44.15;102837.88;5057685;28;20451;-69
2023/04/09 06:53:47;;;;;;;3.58;1.10;;;;;;;11.56;44.20;102837.75;5059674;28;20439;-69
2023/04/09 06:56:12;;;;;;;1.88;1.10;;;;;;;11.83;43.77;102830.53;5059084;28;20053;-69
2023/04/09 06:58:38;;;;;;;3.67;1.40;;;;;;;12.20;43.24;102833.81;5058174;28;20086;-69
2023/04/09 07:01:03;;;;;;;3.15;1.38;;;;;;;12.38;43.02;102825.66;5041235;28;20033;-69
2023/04/09 07:03:29;;;;;;;1.92;1.35;;;;;;;12.52;42.90;102831.47;5058621;28;20059;-69
2023/04/09 07:05:55;;;;;;;4.18;1.30;;;;;;;12.14;42.94;102820.97;5058498;28;20037;-69
2023/04/09 07:08:21;;;;;;;1.75;1.30;;;;;;;12.58;42.69;102836.19;5057579;28;20025;-70
2023/04/09 07:10:47;;;;;;;1.90;1.25;;;;;;;12.69;42.09;102836.75;5057797;28;20059;-69
2023/04/09 07:13:12;;;;;;;4.18;1.20;;;;;;;12.59;42.00;102832.50;5058784;28;20028;-69
2023/04/09 07:15:38;;;;;;;2.63;1.10;;;;;;;12.54;41.55;102810.53;5059093;28;20040;-69
2023/04/09 07:18:03;;;;;;;1.95;1.20;;;;;;;12.28;41.73;102821.38;5073832;28;20036;-69
2023/04/09 07:20:29;;;;;;;3.20;1.20;;;;;;;12.61;41.31;102830.47;5041168;28;20029;-69
2023/04/09 07:22:54;;;;;;;3.58;1.17;;;;;;;12.73;40.68;102809.41;5058602;28;20025;-69
2023/04/09 07:25:20;;;;;;;1.73;1.00;;;;;;;12.38;38.73;102822.97;5024667;28;20025;-69
2023/04/09 07:27:45;;;;;;;2.53;0.90;;;;;;;12.89;40.17;102828.38;5058699;28;20032;-69
2023/04/09 07:30:11;;;;;;;2.30;0.95;;;;;;;12.58;39.43;102818.16;5057094;28;20020;-69
2023/04/09 07:32:36;;;;;;;2.08;1.08;;;;;;;13.04;39.38;102825.88;5062074;28;20021;-69
2023/04/09 07:35:06;;;;;;;3.75;1.20;;;;;;;13.37;39.11;102829.47;5045262;28;20024;-69
2023/04/09 07:37:31;;;;;;;2.67;1.00;;;;;;;13.39;39.02;102813.94;5057489;28;20100;-69
2023/04/09 07:39:57;;;;;;;2.38;1.02;;;;;;;13.30;38.19;102832.00;5055785;28;20063;-69
2023/04/09 07:42:22;;;;;;;2.83;0.90;;;;;;;13.47;38.17;102823.91;5057054;28;20037;-69
2023/04/09 07:44:48;;;;;;;3.13;1.20;;;;;;;13.46;37.96;102806.84;5058143;28;20156;-69
2023/04/09 07:47:13;;;;;;;3.63;1.10;;;;;;;13.81;37.94;102826.44;5073100;28;20140;-69
2023/04/09 07:49:39;;;;;;;2.65;1.10;;;;;;;13.78;38.15;102837.63;5056796;28;20021;-69
2023/04/09 07:52:05;;;;;;;1.50;0.90;;;;;;;13.92;37.17;102831.50;5057138;28;20049;-69
2023/04/09 07:54:31;;;;;;;1.38;1.00;;;;;;;14.07;36.90;102800.00;5056224;28;20170;-69
2023/04/09 07:56:57;;;;;;;2.92;0.93;;;;;;;13.98;37.03;102813.72;5057607;28;20040;-69
2023/04/09 07:59:23;;;;;;;1.60;1.00;;;;;;;14.24;36.63;102832.47;5058008;28;20036;-69
2023/04/09 08:01:48;;;;;;;1.75;1.08;;;;;;;13.96;37.21;102829.28;5056976;28;20376;-69
2023/04/09 08:04:14;;;;;;;1.83;1.15;;;;;;;14.36;37.08;102831.03;5056664;28;20029;-69
2023/04/09 08:06:40;;;;;;;1.83;1.17;;;;;;;14.26;35.65;102831.25;5056477;28;20023;-69
2023/04/09 08:09:05;;;;;;;2.60;1.00;;;;;;;14.48;36.27;102818.81;5058285;28;20033;-69
2023/04/09 08:11:31;;;;;;;1.70;1.00;;;;;;;14.81;36.30;102824.09;5056519;28;20405;-69
2023/04/09 08:13:56;;;;;;;2.17;1.20;;;;;;;14.15;37.02;102828.06;5059730;28;20120;-69
2023/04/09 08:16:23;;;;;;;1.85;1.08;;;;;;;14.38;37.10;102834.44;5062504;28;20025;-69
2023/04/09 08:18:52;;;;;;;2.22;1.50;;;;;;;14.03;36.92;102819.47;5055327;28;20057;-69
2023/04/09 08:21:19;;;;;;;3.42;1.20;;;;;;;14.04;36.60;102800.34;5053545;28;20032;-69
2023/04/09 08:23:44;;;;;;;2.47;1.55;;;;;;;14.51;36.88;102825.78;5055828;28;20033;-69
2023/04/09 08:26:10;;;;;;;3.22;1.33;;;;;;;14.40;37.06;102802.56;5057180;28;20029;-69
2023/04/09 08:28:36;;;;;;;3.00;1.80;;;;;;;14.52;37.36;102820.16;5055872;28;20112;-69
2023/04/09 08:31:01;;;;;;;2.78;1.52;;;;;;;14.57;37.48;102823.22;5022883;28;20444;-69
2023/04/09 08:33:27;;;;;;;2.65;1.60;;;;;;;14.49;38.09;102809.66;5039415;28;20033;-69
2023/04/09 08:35:52;;;;;;;2.55;1.50;;;;;;;14.63;37.71;102810.81;5057575;28;20198;-70
2023/04/09 08:38:18;;;;;;;5.57;2.67;;;;;;;14.89;37.56;102813.22;5055824;28;20087;-69
2023/04/09 08:40:44;;;;;;;4.07;2.17;;;;;;;14.80;37.51;102806.13;5057350;28;20075;-69
2023/04/09 08:43:16;;;;;;;6.10;1.65;;;;;;;14.69;37.52;102811.97;5055629;28;20029;-69
2023/04/09 08:45:42;;;;;;;2.95;1.20;;;;;;;14.99;37.20;102811.09;5057129;28;20025;-69
2023/04/09 08:48:09;;;;;;;4.68;1.42;;;;;;;13.75;36.89;102805.47;5057241;28;20021;-69
2023/04/09 08:50:36;;;;;;;1.63;1.10;;;;;;;14.32;37.99;102792.63;5056665;28;20080;-69
2023/04/09 08:53:03;;;;;;;1.83;1.17;;;;;;;14.64;37.12;102814.38;5059171;28;20412;-69
2023/04/09 08:55:30;;;;;;;2.55;1.33;;;;;;;14.41;37.21;102809.72;5058129;28;20036;-69
2023/04/09 08:57:57;;;;;;;3.45;1.00;;;;;;;14.86;37.31;102816.28;5059859;28;20025;-69
2023/04/09 09:00:23;;;;;;;2.10;1.10;;;;;;;14.80;36.57;102779.03;5059394;28;20021;-69
2023/04/09 09:03:04;;;;;;;1.00;0.82;;;;;;;15.29;36.44;102808.53;5060943;28;20112;-69
2023/04/09 09:05:50;;;;;;;3.00;1.00;;;;;;;15.39;35.92;102811.00;5060511;28;20096;-69
2023/04/09 09:08:34;;;;;;;3.17;1.20;;;;;;;15.38;35.76;102810.16;5059203;28;20181;-69
2023/04/09 09:10:59;;;;;;;3.45;1.10;;;;;;;15.45;35.39;102802.97;5059457;28;20025;-70
2023/04/09 09:13:26;;;;;;;1.90;0.80;;;;;;;15.55;35.46;102804.59;5059192;28;20518;-69
2023/04/09 09:15:55;;;;;;;2.95;1.00;;;;;;;15.66;34.88;102799.63;5059429;28;20086;-69
2023/04/09 09:18:37;;;;;;;1.27;0.80;;;;;;;15.79;34.52;102800.81;5075511;28;20570;-69
2023/04/09 09:21:13;;;;;;;1.33;0.77;;;;;;;15.85;34.42;102803.66;5060385;28;20051;-70
2023/04/09 09:23:38;;;;;;;2.17;0.90;;;;;;;15.74;34.62;102799.50;5060403;28;20029;-69
2023/04/09 09:26:17;;;;;;;2.38;1.05;;;;;;;15.86;34.06;102791.78;5060430;28;20035;-69
2023/04/09 09:28:45;;;;;;;1.38;1.00;;;;;;;15.67;34.59;102776.88;5060405;28;20352;-69
2023/04/09 09:31:12;;;;;;;2.08;0.90;;;;;;;15.95;34.60;102800.66;5058781;28;20028;-69
2023/04/09 09:33:38;;;;;;;3.17;1.20;;;;;;;16.00;34.97;102792.81;5061001;28;20037;-69
2023/04/09 09:36:04;;;;;;;1.40;0.73;;;;;;;16.04;34.61;102793.28;5059659;28;20056;-69
2023/04/09 09:38:30;;;;;;;3.20;1.15;;;;;;;16.04;34.16;102788.69;5058598;28;20479;-69
2023/04/09 09:40:55;;;;;;;2.00;1.10;;;;;;;16.10;33.97;102789.81;5060273;28;20029;-70
2023/04/09 09:43:21;;;;;;;1.80;0.85;;;;;;;15.99;33.99;102774.81;5060060;28;20079;-69
2023/04/09 09:45:47;;;;;;;3.47;1.08;;;;;;;16.14;33.95;102778.38;5058633;28;20025;-69
2023/04/09 09:48:14;;;;;;;2.85;1.00;;;;;;;16.09;33.67;102790.81;5058628;28;20033;-70
2023/04/09 09:50:40;;;;;;;2.00;1.10;;;;;;;16.10;33.31;102765.38;5059643;28;20468;-69
2023/04/09 09:53:07;;;;;;;1.45;0.95;;;;;;;16.16;32.66;102779.03;5060255;28;20078;-69
2023/04/09 09:55:39;;;;;;;1.58;1.00;;;;;;;16.27;31.87;102776.88;5059916;28;20031;-69
2023/04/09 09:58:15;;;;;;;1.30;0.80;;;;;;;16.32;32.12;102777.97;5054899;28;20279;-70
2023/04/09 10:00:42;;;;;;;1.45;1.02;;;;;;;16.34;32.01;102772.38;5058543;28;20031;-69
2023/04/09 10:03:14;;;;;;;1.35;0.80;;;;;;;16.26;31.06;102773.34;5058412;28;20033;-70
2023/04/09 10:05:40;;;;;;;1.00;0.75;;;;;;;16.38;31.46;102773.66;5057652;28;20492;-70
2023/04/09 10:08:06;;;;;;;3.80;1.10;;;;;;;16.52;31.16;102770.06;5058935;28;20035;-69
2023/04/09 10:10:33;;;;;;;1.73;0.73;;;;;;;16.52;31.24;102769.25;5058946;28;20029;-69
2023/04/09 10:12:58;;;;;;;1.17;0.80;;;;;;;16.63;31.07;102775.03;5059821;28;20065;-70
2023/04/09 10:15:25;;;;;;;1.67;0.90;;;;;;;16.58;31.38;102772.03;5058035;28;20025;-70
2023/04/09 10:17:50;;;;;;;1.50;1.10;;;;;;;16.62;31.64;102772.50;5059090;28;20029;-70
2023/04/09 10:20:28;;;;;;;1.92;1.00;;;;;;;16.55;31.90;102769.69;5024395;28;20415;-70
2023/04/09 10:22:54;;;;;;;1.65;1.05;;;;;;;16.66;32.18;102768.38;5074342;28;20491;-70
2023/04/09 10:25:20;;;;;;;1.05;0.70;;;;;;;16.76;32.14;102766.22;5058511;28;20036;-69
2023/04/09 10:27:58;;;;;;;2.83;1.15;;;;;;;16.70;31.29;102756.09;5040805;28;20029;-69
2023/04/09 10:30:32;;;;;;;2.50;1.00;;;;;;;16.80;32.16;102756.66;5065207;28;20019;-71
2023/04/09 10:33:14;;;;;;;1.45;0.80;;;;;;;16.91;31.75;102764.28;5070336;28;20025;-69
2023/04/09 10:35:39;;;;;;;2.08;1.08;;;;;;;16.87;31.44;102754.00;5055262;28;20025;-69
2023/04/09 10:38:09;;;;;;;1.88;0.90;;;;;;;17.02;31.93;102754.78;5056381;28;20071;-69
2023/04/09 10:40:50;;;;;;;1.98;1.00;;;;;;;17.16;31.68;102752.19;5040815;28;20037;-69
2023/04/09 10:43:18;;;;;;;4.50;0.90;;;;;;;17.10;31.70;102751.09;5058924;28;20035;-70
2023/04/09 10:45:47;;;;;;;1.48;1.00;;;;;;;17.07;31.19;102748.75;5059230;28;20039;-69
2023/04/09 10:48:13;;;;;;;2.78;1.08;;;;;;;17.05;31.04;102745.38;5059377;28;20384;-69
2023/04/09 10:50:41;;;;;;;2.05;1.00;;;;;;;17.05;30.91;102713.59;5074796;28;20025;-69
2023/04/09 10:53:06;;;;;;;1.63;1.00;;;;;;;17.08;31.42;102740.38;5059309;28;20033;-69
2023/04/09 10:55:37;;;;;;;3.03;1.13;;;;;;;17.13;31.08;102737.94;5057621;28;20092;-70
2023/04/09 10:58:10;;;;;;;2.38;1.08;;;;;;;17.19;31.14;102743.63;5064387;28;20027;-70
2023/04/09 11:01:01;;;;;;;3.17;1.05;;;;;;;17.23;31.18;102726.72;5064200;28;20056;-69
2023/04/09 11:03:30;;;;;;;1.73;0.98;;;;;;;17.27;31.07;102741.59;5057396;28;20051;-70
2023/04/09 11:06:09;;;;;;;2.25;1.00;;;;;;;17.34;30.83;102739.78;5059564;28;20029;-70
2023/04/09 11:08:35;;;;;;;1.75;1.10;;;;;;;17.28;31.10;102735.13;5058501;28;20101;-70
2023/04/09 11:11:01;;;;;;;2.10;1.00;;;;;;;17.34;30.84;102742.50;5057562;28;20025;-69
2023/04/09 11:13:28;;;;;;;2.55;0.90;;;;;;;17.27;30.93;102741.59;5057192;28;20491;-70
2023/04/09 11:15:54;;;;;;;2.58;1.30;;;;;;;17.27;31.49;102744.31;5056542;28;20099;-70
2023/04/09 11:18:24;;;;;;;3.00;1.08;;;;;;;17.43;31.33;102736.91;5057294;28;20053;-70
2023/04/09 11:21:01;;;;;;;1.98;1.20;;;;;;;17.36;31.03;102726.81;5056241;28;20114;-70
2023/04/09 11:23:27;;;;;;;2.42;1.08;;;;;;;17.49;31.12;102736.13;5044880;28;20032;-70
2023/04/09 11:25:53;;;;;;;2.08;1.00;;;;;;;17.55;31.09;102732.63;5073548;28;20063;-69
2023/04/09 11:28:19;;;;;;;1.70;0.85;;;;;;;17.30;30.81;102714.00;5057849;28;20371;-69